createdAt,value
2024-01-11T00:02:45.906Z,68.31
2024-01-11T00:06:49.353Z,67.78
2024-01-11T00:10:52.783Z,67.73
2024-01-11T00:14:56.050Z,68.36
2024-01-11T00:19:00.978Z,68.18
2024-01-11T00:23:04.723Z,68.80
2024-01-11T00:27:08.189Z,68.49
2024-01-11T00:31:11.544Z,68.25
2024-01-11T00:35:16.556Z,69.13
2024-01-11T00:39:20.304Z,69.28
2024-01-11T00:43:24.335Z,68.59
2024-01-11T00:47:27.472Z,68.73
2024-01-11T00:51:32.264Z,68.37
2024-01-11T00:55:35.561Z,68.42
2024-01-11T00:59:38.753Z,68.07
2024-01-11T01:03:42.282Z,68.80
2024-01-11T01:07:47.482Z,68.15
2024-01-11T01:11:50.861Z,68.84
2024-01-11T01:15:54.126Z,68.52
2024-01-11T01:19:57.369Z,68.51
2024-01-11T01:24:02.186Z,68.38
2024-01-11T01:28:06.094Z,69.16
2024-01-11T01:32:09.443Z,69.30
2024-01-11T01:36:13.027Z,68.40
2024-01-11T01:40:17.713Z,68.79
2024-01-11T01:44:21.178Z,68.41
2024-01-11T01:48:24.481Z,68.58
2024-01-11T01:52:28.075Z,68.56
2024-01-11T01:56:33.514Z,68.64
2024-01-11T02:00:36.790Z,68.02
2024-01-11T02:04:40.524Z,68.94
2024-01-11T02:08:45.822Z,68.68
2024-01-11T02:12:50.416Z,69.48
2024-01-11T02:16:53.756Z,69.36
2024-01-11T02:20:57.706Z,69.59
2024-01-11T02:25:02.386Z,69.88
2024-01-11T02:29:05.605Z,69.71
2024-01-11T02:33:09.717Z,69.03
2024-01-11T02:37:15.031Z,68.79
2024-01-11T02:41:20.910Z,68.29
2024-01-11T02:45:24.155Z,67.55
2024-01-11T02:49:27.489Z,67.56
2024-01-11T02:53:35.537Z,66.40
2024-01-11T02:57:40.343Z,66.28
2024-01-11T03:01:43.759Z,66.82
2024-01-11T03:05:47.314Z,66.90
2024-01-11T03:09:50.736Z,67.30
2024-01-11T03:13:55.266Z,68.42
2024-01-11T03:17:58.881Z,69.49
2024-01-11T03:22:07.440Z,69.90
2024-01-11T03:26:16.083Z,69.80
2024-01-11T03:30:20.936Z,70.30
2024-01-11T03:34:24.230Z,70.69
2024-01-11T03:38:27.616Z,69.84
2024-01-11T03:42:30.964Z,71.01
2024-01-11T03:46:35.672Z,69.81
2024-01-11T03:50:38.886Z,70.38
2024-01-11T03:54:42.297Z,69.60
2024-01-11T03:58:46.584Z,69.11
2024-01-11T04:02:51.161Z,67.64
2024-01-11T04:06:54.693Z,67.94
2024-01-11T04:10:58.022Z,68.55
2024-01-11T04:15:01.122Z,68.78
2024-01-11T04:19:06.081Z,68.55
2024-01-11T04:23:09.509Z,67.76
2024-01-11T04:27:12.998Z,67.14
2024-01-11T04:31:18.277Z,67.24
2024-01-11T04:35:22.967Z,66.89
2024-01-11T04:39:26.251Z,67.36
2024-01-11T04:43:29.608Z,66.40
2024-01-11T04:47:34.012Z,67.29
2024-01-11T04:51:38.859Z,66.87
2024-01-11T04:55:42.183Z,67.32
2024-01-11T04:59:46.368Z,67.17
2024-01-11T05:03:51.649Z,67.73
2024-01-11T05:07:56.891Z,67.48
2024-01-11T05:12:02.803Z,67.28
2024-01-11T05:16:06.883Z,68.28
2024-01-11T05:20:12.150Z,67.70
2024-01-11T05:24:17.304Z,68.04
2024-01-11T05:28:20.455Z,68.00
2024-01-11T05:32:23.782Z,68.70
2024-01-11T05:36:26.961Z,68.22
2024-01-11T05:40:32.540Z,69.00
2024-01-11T05:44:35.624Z,68.24
2024-01-11T05:48:40.161Z,69.12
2024-01-11T05:52:43.589Z,68.87
2024-01-11T05:56:48.618Z,68.90
2024-01-11T06:00:51.763Z,68.81
2024-01-11T06:04:55.449Z,68.46
2024-01-11T06:08:58.949Z,68.52
2024-01-11T06:13:04.165Z,67.95
2024-01-11T06:17:07.232Z,68.13
2024-01-11T06:21:10.633Z,68.46
2024-01-11T06:25:14.015Z,69.08
2024-01-11T06:29:19.039Z,68.93
2024-01-11T06:33:22.828Z,69.10
2024-01-11T06:37:26.504Z,68.64
2024-01-11T06:41:29.730Z,68.31
2024-01-11T06:45:36.695Z,68.26
2024-01-11T06:49:41.113Z,68.49
2024-01-11T06:53:45.342Z,68.95
2024-01-11T06:57:50.183Z,68.71
2024-01-11T07:01:55.328Z,69.06
2024-01-11T07:05:58.526Z,69.00
2024-01-11T07:10:02.366Z,69.66
2024-01-11T07:14:05.866Z,69.94
2024-01-11T07:18:10.828Z,70.00
2024-01-11T07:22:13.977Z,70.73
2024-01-11T07:26:17.668Z,71.09
2024-01-11T07:30:21.137Z,70.45
2024-01-11T07:34:26.391Z,70.21
2024-01-11T07:38:29.620Z,70.14
2024-01-11T07:42:33.567Z,69.28
2024-01-11T07:46:42.529Z,68.73
2024-01-11T07:50:54.668Z,68.54
2024-01-11T07:54:59.188Z,67.50
2024-01-11T07:59:02.659Z,68.37
2024-01-11T08:03:06.661Z,68.05
2024-01-11T08:07:11.671Z,67.45
2024-01-11T08:11:14.843Z,68.31
2024-01-11T08:15:18.055Z,68.81
2024-01-11T08:19:21.497Z,68.98
2024-01-11T08:23:29.473Z,68.11
2024-01-11T08:27:34.476Z,68.14
2024-01-11T08:31:40.368Z,68.19
2024-01-11T08:39:56.327Z,68.41
2024-01-11T08:43:59.846Z,68.67
2024-01-11T10:07:41.000Z,56.82
2024-01-11T10:11:44.789Z,55.89
2024-01-11T10:20:06.902Z,55.36
2024-01-11T10:24:11.975Z,53.96
2024-01-11T10:28:17.028Z,53.72
2024-01-11T10:32:20.636Z,55.06
2024-01-11T10:36:25.450Z,53.30
2024-01-11T10:40:31.126Z,53.50
2024-01-11T10:44:37.685Z,51.99
2024-01-11T10:48:42.251Z,53.06
2024-01-11T10:52:57.380Z,54.15
2024-01-11T10:57:05.585Z,52.95
2024-01-11T11:01:10.522Z,53.24
2024-01-11T11:05:16.194Z,52.57
2024-01-11T11:09:22.439Z,52.67
2024-01-11T11:13:28.052Z,52.44
2024-01-11T11:17:32.464Z,52.01
2024-01-11T11:21:44.091Z,52.20
2024-01-11T11:25:50.036Z,51.12
2024-01-11T11:29:55.100Z,51.49
2024-01-11T11:34:05.211Z,51.38
2024-01-11T11:38:08.746Z,51.73
2024-01-11T11:42:12.592Z,52.36
2024-01-11T11:46:17.218Z,51.23
2024-01-11T11:50:25.156Z,51.52
2024-01-11T11:54:29.081Z,51.79
2024-01-11T11:58:33.148Z,51.54
2024-01-11T12:02:38.117Z,51.91
2024-01-11T12:06:41.911Z,52.41
2024-01-11T12:10:45.355Z,52.71
2024-01-11T12:14:49.320Z,52.77
2024-01-11T12:18:54.907Z,53.18
2024-01-11T12:22:59.259Z,52.45
2024-01-11T12:27:03.206Z,52.53
2024-01-11T12:31:07.264Z,52.68
2024-01-11T12:35:12.833Z,53.39
2024-01-11T12:39:16.987Z,52.90
2024-01-11T12:43:20.243Z,52.97
2024-01-11T12:47:23.679Z,53.73
2024-01-11T12:51:28.559Z,53.19
2024-01-11T12:55:34.003Z,53.02
2024-01-11T12:59:40.729Z,53.04
2024-01-11T13:03:48.393Z,54.98
2024-01-11T13:07:53.172Z,53.87
2024-01-11T13:11:56.936Z,54.37
2024-01-11T13:20:12.184Z,53.68
2024-01-11T13:24:17.455Z,55.09
2024-01-11T13:28:21.419Z,55.72
2024-01-11T13:32:25.143Z,56.10
2024-01-11T13:40:46.833Z,56.31
2024-01-11T13:44:50.232Z,57.54
2024-01-11T13:48:56.257Z,57.50
2024-01-11T13:52:59.619Z,57.95
2024-01-11T13:57:04.694Z,57.45
2024-01-11T14:01:09.057Z,57.53
2024-01-11T14:05:15.142Z,57.99
2024-01-11T14:09:19.009Z,57.89
2024-01-11T14:13:23.684Z,58.35
2024-01-11T14:17:27.657Z,58.23
2024-01-11T14:21:31.064Z,58.03
2024-01-11T14:25:34.170Z,58.48
2024-01-11T14:29:38.876Z,59.39
2024-01-11T14:33:45.215Z,58.93
2024-01-11T14:37:49.384Z,59.24
2024-01-11T14:41:53.202Z,59.63
2024-01-11T14:50:15.597Z,59.71
2024-01-11T14:54:21.016Z,60.32
2024-01-11T15:24:09.035Z,62.59
2024-01-11T15:58:06.430Z,64.22
2024-01-11T16:02:10.395Z,65.10
2024-01-11T16:06:14.152Z,65.45
2024-01-11T16:10:17.403Z,64.72
2024-01-11T16:14:31.547Z,64.97
2024-01-11T16:18:37.153Z,65.38
2024-01-11T16:22:40.556Z,65.85
2024-01-11T16:26:43.956Z,65.77
2024-01-11T16:30:48.560Z,65.67
2024-01-11T16:34:52.986Z,66.32
2024-01-11T16:38:56.808Z,65.78
2024-01-11T16:43:00.242Z,65.76
2024-01-11T16:47:05.468Z,66.09
2024-01-11T16:51:08.964Z,66.36
2024-01-11T16:55:12.472Z,66.69
2024-01-11T16:59:16.638Z,67.69
2024-01-11T17:03:21.573Z,67.79
2024-01-11T17:07:25.094Z,67.29
2024-01-11T17:11:29.008Z,67.23
2024-01-11T17:15:32.230Z,67.53
2024-01-11T17:19:37.109Z,67.92
2024-01-11T17:23:41.555Z,67.80
2024-01-11T17:27:47.865Z,67.41
2024-01-11T17:31:54.945Z,68.02
2024-01-11T17:35:59.809Z,68.01
2024-01-11T17:40:03.674Z,69.29
2024-01-11T17:44:06.951Z,69.00
2024-01-11T17:48:10.419Z,68.93
2024-01-11T17:52:15.150Z,68.84
2024-01-11T17:56:19.054Z,68.71
2024-01-11T18:00:22.829Z,68.91
2024-01-11T18:04:26.376Z,68.92
2024-01-11T18:08:34.215Z,69.03
2024-01-11T18:12:37.550Z,69.20
2024-01-11T18:16:40.719Z,68.70
2024-01-11T18:20:43.998Z,68.69
2024-01-11T18:24:48.949Z,68.09
2024-01-11T18:28:52.114Z,68.46
2024-01-11T18:32:55.965Z,69.35
2024-01-11T18:36:59.514Z,69.80
2024-01-11T18:41:04.194Z,69.28
2024-01-11T18:45:10.696Z,68.55
2024-01-11T18:49:14.208Z,68.48
2024-01-11T18:53:18.625Z,68.44
2024-01-11T18:57:23.478Z,68.00
2024-01-11T19:01:28.971Z,68.02
2024-01-11T19:05:32.508Z,67.57
2024-01-11T19:09:35.846Z,67.25
2024-01-11T19:13:40.909Z,66.66
2024-01-11T19:17:44.003Z,66.97
2024-01-11T19:21:47.140Z,66.61
2024-01-11T19:25:50.545Z,67.29
2024-01-11T19:29:55.108Z,66.04
2024-01-11T19:33:59.202Z,65.62
2024-01-11T19:38:02.493Z,65.86
2024-01-11T19:42:08.355Z,65.74
2024-01-11T19:46:21.314Z,66.21
2024-01-11T19:50:27.540Z,66.36
2024-01-11T19:54:30.882Z,66.38
2024-01-11T19:58:34.155Z,66.34
2024-01-11T20:02:39.774Z,66.10
2024-01-11T20:06:44.720Z,66.07
2024-01-11T20:10:47.809Z,66.86
2024-01-11T20:14:51.065Z,66.50
2024-01-11T20:18:55.930Z,66.47
2024-01-11T20:23:00.048Z,66.51
2024-01-11T20:27:05.102Z,66.56
2024-01-11T20:31:10.658Z,66.65
2024-01-11T20:35:15.825Z,67.12
2024-01-11T20:39:21.796Z,66.97
2024-01-11T20:43:25.061Z,67.26
2024-01-11T20:47:28.457Z,67.59
2024-01-11T20:51:33.473Z,67.51
2024-01-11T20:55:36.573Z,67.25
2024-01-11T20:59:41.231Z,67.70
2024-01-11T21:03:44.577Z,68.03
2024-01-11T21:07:49.071Z,67.91
2024-01-11T21:11:52.407Z,67.80
2024-01-11T21:15:55.657Z,67.17
2024-01-11T21:19:59.142Z,66.53
2024-01-11T21:24:05.790Z,66.67
2024-01-11T21:28:09.423Z,67.07
2024-01-11T21:32:15.314Z,66.79
2024-01-11T21:36:24.105Z,66.76
2024-01-11T21:40:28.730Z,66.64
2024-01-11T21:44:32.924Z,66.64
2024-01-11T21:48:36.217Z,66.51
2024-01-11T21:52:39.632Z,66.54
2024-01-11T21:56:44.503Z,66.53
2024-01-11T22:00:47.813Z,66.12
2024-01-11T22:04:51.306Z,65.30
2024-01-11T22:08:59.561Z,65.36
2024-01-11T22:13:04.927Z,65.52
2024-01-11T22:17:09.460Z,65.43
2024-01-11T22:21:14.700Z,65.80
2024-01-11T22:25:18.713Z,65.22
2024-01-11T22:29:23.192Z,65.42
2024-01-11T22:33:26.517Z,65.18
2024-01-11T22:37:29.583Z,65.27
2024-01-11T22:41:40.474Z,65.17
2024-01-11T22:45:45.006Z,65.25
2024-01-11T22:49:48.277Z,65.09
2024-01-11T22:53:52.409Z,64.77
2024-01-11T22:57:55.693Z,65.22
2024-01-11T23:02:00.204Z,65.38
2024-01-11T23:06:03.819Z,65.18
2024-01-11T23:10:07.902Z,65.48
2024-01-11T23:14:14.077Z,65.29
2024-01-11T23:31:11.116Z,65.45
2024-01-11T23:35:14.706Z,66.05
